Time;durP1;ratioP1;P1;durP2;ratioP2;P2;SDS_P1;SDS_P2;PMS_P1;PMS_P2;Temp;Humidity;BMP_temperature;BMP_pressure;BME280_temperature;BME280_humidity;BME280_pressure;Samples;Min_cycle;Max_cycle;Signal;HPM_P1;HPM_P2
2022/05/17 00:02:06;;;;;;;0.20;0.20;;;;;;;18.06;82.36;100574.44;5035944;28;20040;-69
2022/05/17 00:04:32;;;;;;;0.20;0.20;;;;;;;18.01;82.66;100572.03;5035439;28;20025;-69
2022/05/17 00:06:58;;;;;;;0.10;0.10;;;;;;;18.02;83.06;100579.25;5053338;28;20112;-70
2022/05/17 00:09:24;;;;;;;0.20;0.20;;;;;;;18.03;83.57;100573.22;5035155;28;20068;-70
2022/05/17 00:11:49;;;;;;;0.20;0.20;;;;;;;18.06;83.66;100577.25;5036121;28;20116;-70
2022/05/17 00:14:16;;;;;;;0.10;0.10;;;;;;;18.18;83.22;100576.81;5035472;28;20222;-70
2022/05/17 00:16:43;;;;;;;0.20;0.20;;;;;;;18.12;83.59;100578.44;5035323;28;20021;-69
2022/05/17 00:19:11;;;;;;;0.20;0.20;;;;;;;18.07;83.74;100573.22;5035072;28;20029;-69
2022/05/17 00:21:37;;;;;;;0.20;0.20;;;;;;;18.13;83.09;100568.78;5035492;28;20025;-69
2022/05/17 00:24:04;;;;;;;0.20;0.20;;;;;;;18.14;83.08;100570.38;5031840;28;20458;-70
2022/05/17 00:26:29;;;;;;;0.20;0.20;;;;;;;18.06;83.69;100574.44;5033917;28;20095;-70
2022/05/17 00:28:55;;;;;;;0.20;0.20;;;;;;;18.15;83.02;100566.34;5034652;28;20022;-70
2022/05/17 00:31:21;;;;;;;0.20;0.20;;;;;;;18.00;82.84;100547.88;5035751;28;20120;-70
2022/05/17 00:33:47;;;;;;;0.20;0.20;;;;;;;18.11;82.92;100571.19;5036036;28;20029;-70
2022/05/17 00:36:12;;;;;;;0.20;0.20;;;;;;;18.17;83.00;100574.41;5035667;28;20025;-70
2022/05/17 00:38:38;;;;;;;0.10;0.10;;;;;;;18.17;82.65;100575.22;5035588;28;20116;-70
2022/05/17 00:41:03;;;;;;;0.20;0.20;;;;;;;18.15;82.76;100566.34;5036142;28;20033;-69
2022/05/17 00:44:42;;;;;;;0.20;0.20;;;;;;;18.11;83.64;100564.75;5035537;28;20396;-69
2022/05/17 00:46:39;;;;;;;0.20;0.20;;;;;;;18.18;82.54;100565.53;5036528;28;20033;-70
2022/05/17 00:49:10;;;;;;;0.20;0.20;;;;;;;18.20;82.08;100571.56;5034581;28;20037;-69
2022/05/17 00:51:39;;;;;;;0.20;0.20;;;;;;;18.17;82.02;100571.59;5035451;28;20029;-69
2022/05/17 00:54:14;;;;;;;0.20;0.20;;;;;;;18.13;82.42;100563.16;5035336;28;20091;-70
2022/05/17 00:56:49;;;;;;;0.20;0.20;;;;;;;18.21;81.75;100570.34;5035799;28;20029;-69
2022/05/17 00:59:15;;;;;;;0.10;0.10;;;;;;;18.20;81.96;100567.94;5035267;28;20033;-70
2022/05/17 01:01:41;;;;;;;0.20;0.20;;;;;;;18.06;82.30;100577.25;5034895;28;20163;-69
2022/05/17 01:04:18;;;;;;;0.20;0.20;;;;;;;18.07;82.55;100576.03;5035176;28;20120;-70
2022/05/17 01:06:51;;;;;;;0.10;0.10;;;;;;;18.03;82.33;100569.59;5035115;28;20048;-70
2022/05/17 01:09:18;;;;;;;0.10;0.10;;;;;;;17.97;82.75;100566.38;5035399;28;20037;-69
2022/05/17 01:11:44;;;;;;;0.20;0.20;;;;;;;17.99;82.21;100565.97;5035011;28;20033;-70
2022/05/17 01:16:54;;;;;;;0.20;0.20;;;;;;;17.94;82.71;100563.56;5036381;28;20037;-70
2022/05/17 01:19:20;;;;;;;0.20;0.20;;;;;;;18.03;81.88;100553.50;5035170;28;20037;-70
2022/05/17 01:21:46;;;;;;;0.20;0.20;;;;;;;18.00;82.10;100567.56;5034902;28;20021;-70
2022/05/17 01:24:12;;;;;;;0.20;0.20;;;;;;;17.86;82.71;100559.97;5034839;28;20128;-69
2022/05/17 01:26:43;;;;;;;0.20;0.20;;;;;;;17.94;82.96;100555.91;5034780;28;20029;-69
2022/05/17 01:29:11;;;;;;;0.20;0.20;;;;;;;17.96;82.32;100558.34;5034790;28;20025;-69
2022/05/17 01:31:38;;;;;;;0.20;0.20;;;;;;;17.89;82.44;100559.13;5035173;28;20033;-70
2022/05/17 01:34:31;;;;;;;0.20;0.20;;;;;;;17.90;81.82;100554.34;5034668;28;20087;-70
2022/05/17 01:40:42;;;;;;;0.20;0.20;;;;;;;17.90;81.43;100551.53;5034901;28;20033;-69
2022/05/17 01:47:07;;;;;;;0.20;0.20;;;;;;;17.77;81.18;100545.50;5036016;28;20049;-70
2022/05/17 01:50:01;;;;;;;0.20;0.20;;;;;;;17.86;80.36;100547.91;5034583;28;20487;-70
2022/05/17 01:52:49;;;;;;;0.20;0.20;;;;;;;17.67;80.53;100547.06;5034625;28;20029;-70
2022/05/17 01:55:55;;;;;;;0.20;0.20;;;;;;;17.72;80.34;100552.31;5034261;28;20491;-70
2022/05/17 01:58:41;;;;;;;0.20;0.20;;;;;;;17.63;81.25;100549.09;5034429;28;20052;-69
2022/05/17 02:01:50;;;;;;;0.20;0.20;;;;;;;17.58;81.51;100543.88;5034098;28;20037;-70
2022/05/17 02:05:17;;;;;;;0.20;0.20;;;;;;;17.56;82.11;100554.72;5034338;28;20117;-70
2022/05/17 02:08:22;;;;;;;0.20;0.20;;;;;;;17.62;82.51;100547.47;5035046;28;20480;-70
2022/05/17 02:11:16;;;;;;;0.20;0.20;;;;;;;17.56;83.03;100546.28;5034449;28;20044;-70
2022/05/17 02:14:10;;;;;;;;;;;;;;;17.49;83.56;100546.28;5034357;28;20044;-70
2022/05/17 02:17:24;;;;;;;0.20;0.20;;;;;;;17.55;83.06;100545.47;5034451;28;20271;-70
2022/05/17 02:23:12;;;;;;;0.20;0.20;;;;;;;17.22;83.23;100512.09;5035361;28;20045;-70
2022/05/17 02:25:53;;;;;;;0.20;0.20;;;;;;;17.42;82.37;100535.03;5033239;28;20041;-70
2022/05/17 02:29:01;;;;;;;0.20;0.20;;;;;;;17.36;82.78;100530.97;5033626;28;20128;-70
2022/05/17 02:31:59;;;;;;;0.20;0.20;;;;;;;17.23;82.65;100511.69;5034549;28;20029;-70
2022/05/17 02:34:39;;;;;;;0.20;0.20;;;;;;;17.34;82.91;100524.97;5033736;28;20085;-70
2022/05/17 02:40:32;;;;;;;0.20;0.20;;;;;;;17.33;82.48;100531.81;5028771;28;20033;-69
2022/05/17 02:43:44;;;;;;;0.20;0.20;;;;;;;17.22;82.43;100521.34;4992477;28;20049;-69
2022/05/17 02:50:31;;;;;;;0.20;0.20;;;;;;;17.18;82.14;100526.16;4992514;28;20066;-69
2022/05/17 02:53:25;;;;;;;0.20;0.20;;;;;;;17.15;82.40;100529.78;4975984;28;20034;-69
2022/05/17 03:08:33;;;;;;;0.20;0.20;;;;;;;17.16;81.88;100525.75;4990408;28;20069;-69
2022/05/17 03:11:22;;;;;;;0.20;0.20;;;;;;;17.08;82.27;100512.06;4959738;28;20042;-69
2022/05/17 03:14:21;;;;;;;0.20;0.20;;;;;;;17.03;82.77;100522.50;5025370;28;20132;-70
2022/05/17 03:17:25;;;;;;;0.20;0.20;;;;;;;17.01;82.56;100522.13;5026405;28;20107;-70
2022/05/17 03:20:31;;;;;;;0.20;0.20;;;;;;;17.01;82.95;100521.31;5034495;28;20060;-69
2022/05/17 03:23:32;;;;;;;0.20;0.20;;;;;;;17.08;82.11;100515.69;5032807;28;20071;-70
2022/05/17 03:26:00;;;;;;;0.20;0.20;;;;;;;17.10;82.28;100527.38;5031105;28;20168;-70
2022/05/17 03:28:25;;;;;;;0.20;0.20;;;;;;;17.07;82.35;100525.34;5032585;28;20037;-70
2022/05/17 03:30:54;;;;;;;0.20;0.20;;;;;;;17.01;83.03;100522.13;5033054;28;20042;-70
2022/05/17 03:33:19;;;;;;;0.20;0.20;;;;;;;17.01;83.90;100526.94;5032494;28;20037;-70
2022/05/17 03:35:45;;;;;;;0.20;0.20;;;;;;;16.95;83.28;100528.53;5032480;28;20033;-70
2022/05/17 03:38:11;;;;;;;0.20;0.20;;;;;;;16.84;83.98;100522.09;5032345;28;20029;-70
2022/05/17 03:40:36;;;;;;;0.20;0.20;;;;;;;16.79;84.49;100528.09;5032425;28;20171;-70
2022/05/17 03:43:02;;;;;;;0.20;0.20;;;;;;;16.79;85.04;100528.09;5032341;28;20072;-70
2022/05/17 03:45:30;;;;;;;0.20;0.20;;;;;;;16.72;86.03;100538.09;5032288;28;20044;-70
2022/05/17 03:47:56;;;;;;;0.20;0.20;;;;;;;16.80;85.91;100527.69;5032547;28;20407;-70
2022/05/17 03:50:22;;;;;;;0.20;0.20;;;;;;;16.71;86.56;100530.84;5032579;28;20041;-70
2022/05/17 03:52:47;;;;;;;0.20;0.20;;;;;;;16.71;87.34;100530.06;5032089;28;20031;-70
2022/05/17 03:55:13;;;;;;;0.20;0.20;;;;;;;16.74;87.54;100530.06;5032214;28;20037;-69
2022/05/17 03:57:39;;;;;;;0.20;0.20;;;;;;;16.88;86.77;100534.91;5015963;28;20447;-70
2022/05/17 04:00:06;;;;;;;0.20;0.20;;;;;;;16.94;85.71;100543.78;5032505;28;20026;-69
2022/05/17 04:02:36;;;;;;;0.20;0.20;;;;;;;16.98;85.81;100534.13;5031290;28;20045;-70
2022/05/17 04:05:02;;;;;;;0.20;0.20;;;;;;;17.02;85.48;100548.22;5032373;28;20499;-70
2022/05/17 04:07:27;;;;;;;0.20;0.20;;;;;;;17.29;83.98;100543.84;5032322;28;20033;-70
2022/05/17 04:09:53;;;;;;;0.20;0.20;;;;;;;17.54;82.21;100540.25;5032103;28;20022;-69
2022/05/17 04:12:19;;;;;;;0.20;0.20;;;;;;;17.68;81.76;100540.22;5032032;28;20060;-70
2022/05/17 04:14:45;;;;;;;0.20;0.20;;;;;;;17.94;80.19;100550.28;5032609;28;20025;-70
2022/05/17 04:17:13;;;;;;;0.20;0.20;;;;;;;18.20;78.54;100537.78;5031960;28;20468;-70
2022/05/17 04:19:39;;;;;;;0.20;0.20;;;;;;;18.49;77.85;100538.50;5032497;28;20040;-70
2022/05/17 04:22:09;;;;;;;0.20;0.20;;;;;;;18.83;76.50;100535.16;5031956;28;20064;-70
2022/05/17 04:24:35;;;;;;;0.20;0.20;;;;;;;19.22;74.75;100539.75;5032012;28;20050;-70
2022/05/17 04:27:01;;;;;;;0.10;0.10;;;;;;;19.57;72.48;100538.69;5032209;28;20479;-70
2022/05/17 04:29:26;;;;;;;0.20;0.20;;;;;;;19.88;71.72;100539.66;5032304;28;20033;-70
2022/05/17 04:31:52;;;;;;;0.20;0.20;;;;;;;20.18;70.58;100540.94;5031527;28;20461;-70
2022/05/17 04:34:17;;;;;;;0.20;0.20;;;;;;;20.48;68.76;100538.22;5031776;28;20377;-70
2022/05/17 04:36:43;;;;;;;0.20;0.20;;;;;;;20.71;67.73;100545.22;5031734;28;20029;-71
2022/05/17 04:39:11;;;;;;;0.20;0.20;;;;;;;20.99;66.86;100544.03;5032389;28;20037;-70
2022/05/17 04:41:37;;;;;;;0.10;0.10;;;;;;;21.27;65.64;100549.28;5032210;28;20026;-70
2022/05/17 04:44:03;;;;;;;0.20;0.20;;;;;;;21.52;64.98;100542.44;5032322;28;20406;-71
2022/05/17 04:46:31;;;;;;;0.10;0.10;;;;;;;21.93;64.15;100550.63;5031979;28;20425;-70
2022/05/17 04:48:59;;;;;;;0.20;0.20;;;;;;;22.16;63.05;100552.69;5032030;28;20113;-70
2022/05/17 04:51:25;;;;;;;0.10;0.10;;;;;;;22.47;61.75;100558.97;5031697;28;20061;-71
2022/05/17 04:53:53;;;;;;;0.20;0.20;;;;;;;22.81;60.24;100564.34;5032455;28;20064;-71
2022/05/17 04:56:19;;;;;;;0.20;0.20;;;;;;;23.04;59.57;100565.50;5030892;28;20103;-72
2022/05/17 04:58:45;;;;;;;0.20;0.20;;;;;;;23.28;58.87;100555.63;5031354;28;20464;-70
2022/05/17 05:01:10;;;;;;;0.20;0.20;;;;;;;23.66;57.76;100555.94;5032088;28;20076;-71
2022/05/17 05:03:36;;;;;;;0.20;0.20;;;;;;;23.92;57.15;100551.22;5031550;28;20468;-70
2022/05/17 05:06:02;;;;;;;0.20;0.20;;;;;;;24.22;55.54;100564.22;5031733;28;20488;-71
2022/05/17 05:08:30;;;;;;;0.20;0.20;;;;;;;24.27;55.11;100548.66;5031511;28;20029;-71
2022/05/17 05:10:56;;;;;;;0.20;0.20;;;;;;;24.39;54.26;100553.63;5031444;28;20064;-71
2022/05/17 05:13:24;;;;;;;0.20;0.20;;;;;;;24.89;53.39;100566.41;5031323;28;20066;-70
2022/05/17 05:15:50;;;;;;;0.10;0.10;;;;;;;24.79;52.76;100564.69;5035060;28;20037;-70
2022/05/17 05:18:16;;;;;;;0.17;0.17;;;;;;;24.07;55.52;100565.84;5035153;28;20465;-71
2022/05/17 05:20:43;;;;;;;0.10;0.10;;;;;;;23.80;55.98;100566.13;5034977;28;20032;-70
2022/05/17 05:23:09;;;;;;;0.13;0.13;;;;;;;23.76;56.54;100573.97;5036456;28;20025;-71
2022/05/17 05:25:36;;;;;;;0.10;0.10;;;;;;;23.66;56.42;100575.84;5034340;28;20099;-71
2022/05/17 05:28:03;;;;;;;0.15;0.15;;;;;;;23.81;55.62;100575.47;5034761;28;20028;-71
2022/05/17 05:30:30;;;;;;;0.15;0.15;;;;;;;23.90;55.71;100570.75;5036594;28;20108;-70
2022/05/17 05:32:56;;;;;;;0.10;0.10;;;;;;;24.15;55.74;100575.00;5034760;28;20057;-70
2022/05/17 05:35:22;;;;;;;0.10;0.10;;;;;;;24.39;54.46;100575.56;5034707;28;20391;-70
2022/05/17 05:37:48;;;;;;;0.20;0.20;;;;;;;24.21;55.12;100576.03;5034425;28;20026;-70
2022/05/17 05:40:14;;;;;;;0.15;0.15;;;;;;;24.52;54.07;100580.09;5034447;28;20072;-70
2022/05/17 05:42:41;;;;;;;0.10;0.10;;;;;;;24.43;54.62;100579.91;5034415;28;20030;-70
2022/05/17 05:45:09;;;;;;;0.20;0.20;;;;;;;25.08;53.48;100573.19;5034437;28;20080;-70
2022/05/17 05:47:34;;;;;;;0.10;0.10;;;;;;;25.48;51.42;100567.84;5034259;28;20025;-70
2022/05/17 05:50:01;;;;;;;0.10;0.10;;;;;;;24.54;54.50;100571.88;5035921;28;20380;-70
2022/05/17 05:52:26;;;;;;;0.10;0.10;;;;;;;25.17;52.70;100569.66;5034460;28;20029;-70
2022/05/17 05:54:52;;;;;;;0.20;0.20;;;;;;;25.49;52.32;100578.00;5034447;28;20381;-70
2022/05/17 05:57:18;;;;;;;0.10;0.10;;;;;;;25.94;50.84;100574.09;5034380;28;20423;-70
2022/05/17 05:59:44;;;;;;;0.10;0.10;;;;;;;25.28;52.69;100575.81;5034529;28;20388;-70
2022/05/17 06:02:11;;;;;;;0.20;0.20;;;;;;;25.60;51.38;100575.59;5034030;28;20029;-71
2022/05/17 06:04:37;;;;;;;0.20;0.20;;;;;;;26.10;50.18;100578.84;5034260;28;20383;-70
2022/05/17 06:07:03;;;;;;;0.20;0.20;;;;;;;26.46;49.12;100578.38;5033989;28;20025;-70
2022/05/17 06:09:29;;;;;;;0.20;0.20;;;;;;;26.38;49.33;100577.03;5034017;28;20029;-70
2022/05/17 06:11:55;;;;;;;0.10;0.10;;;;;;;25.55;51.58;100576.16;5034643;28;20431;-70
2022/05/17 06:14:21;;;;;;;0.10;0.10;;;;;;;25.39;51.93;100581.97;5035575;28;20032;-70
2022/05/17 06:16:51;;;;;;;0.10;0.10;;;;;;;25.48;51.59;100575.59;5033814;28;20385;-70
2022/05/17 06:19:17;;;;;;;0.20;0.20;;;;;;;25.81;51.45;100581.88;5033511;28;20111;-70
2022/05/17 06:21:45;;;;;;;0.10;0.10;;;;;;;24.95;53.21;100581.69;5033080;28;20025;-70
2022/05/17 06:24:11;;;;;;;0.10;0.10;;;;;;;25.11;53.75;100585.72;5033634;28;20077;-70
2022/05/17 06:26:39;;;;;;;0.10;0.10;;;;;;;24.91;54.33;100589.53;5032652;28;20124;-70
2022/05/17 06:29:06;;;;;;;0.20;0.20;;;;;;;25.72;52.37;100587.44;5034006;28;20037;-70
2022/05/17 06:31:31;;;;;;;0.17;0.17;;;;;;;25.96;51.28;100585.84;5033607;28;20029;-70
2022/05/17 06:33:57;;;;;;;0.10;0.10;;;;;;;26.26;50.74;100575.00;5033779;28;20087;-70
2022/05/17 06:36:22;;;;;;;0.10;0.10;;;;;;;27.54;47.62;100593.03;5033225;28;20036;-70
2022/05/17 06:38:48;;;;;;;0.10;0.10;;;;;;;27.87;45.42;100583.94;5033081;28;20025;-70
2022/05/17 06:41:13;;;;;;;0.15;0.15;;;;;;;27.59;45.76;100595.28;5033237;28;20129;-70
2022/05/17 06:43:40;;;;;;;0.10;0.10;;;;;;;27.25;46.05;100596.22;5033516;28;20492;-70
2022/05/17 06:46:06;;;;;;;0.10;0.10;;;;;;;28.10;44.84;100594.78;5033469;28;20035;-70
2022/05/17 06:48:32;;;;;;;0.10;0.10;;;;;;;28.43;44.71;100588.47;5033424;28;20473;-70
2022/05/17 06:51:06;;;;;;;0.10;0.10;;;;;;;28.36;43.66;100589.59;5033306;28;20419;-70
2022/05/17 06:53:32;;;;;;;0.10;0.10;;;;;;;27.73;45.07;100593.91;5033031;28;20029;-70
2022/05/17 06:55:58;;;;;;;0.20;0.20;;;;;;;28.09;44.18;100578.91;5033393;28;20056;-70
2022/05/17 06:58:26;;;;;;;0.10;0.10;;;;;;;28.19;43.86;100586.22;5032747;28;20056;-70
2022/05/17 07:00:51;;;;;;;0.10;0.10;;;;;;;28.17;44.95;100591.59;5033146;28;20104;-70
2022/05/17 07:03:18;;;;;;;0.10;0.10;;;;;;;28.98;42.23;100582.75;5032583;28;20460;-70
2022/05/17 07:05:43;;;;;;;0.10;0.10;;;;;;;29.06;40.84;100583.19;5032857;28;20468;-70
2022/05/17 07:08:09;;;;;;;0.10;0.10;;;;;;;28.74;41.62;100590.38;5032875;28;20036;-70
2022/05/17 07:13:18;;;;;;;0.10;0.10;;;;;;;28.70;42.87;100582.72;5034416;28;20048;-70
2022/05/17 07:15:48;;;;;;;0.20;0.20;;;;;;;28.08;43.84;100593.69;5032769;28;20033;-69
2022/05/17 07:18:17;;;;;;;0.10;0.10;;;;;;;27.61;44.87;100589.09;5032489;28;20060;-70
2022/05/17 07:20:43;;;;;;;0.10;0.10;;;;;;;26.82;47.01;100582.78;5032806;28;20091;-70
2022/05/17 07:23:10;;;;;;;0.10;0.10;;;;;;;26.97;47.19;100574.47;5032269;28;20036;-70
2022/05/17 07:25:40;;;;;;;0.10;0.10;;;;;;;27.73;45.14;100581.69;5049615;28;20052;-70
2022/05/17 07:28:06;;;;;;;0.10;0.10;;;;;;;27.37;45.00;100583.09;5053793;28;20495;-70
2022/05/17 07:30:32;;;;;;;0.10;0.10;;;;;;;27.21;45.94;100577.63;5035530;28;20124;-70
2022/05/17 07:32:58;;;;;;;0.13;0.13;;;;;;;28.12;43.21;100575.06;5035862;28;20175;-70
2022/05/17 07:35:23;;;;;;;0.10;0.10;;;;;;;27.49;44.48;100573.66;5035876;28;20029;-69
2022/05/17 07:37:49;;;;;;;0.10;0.10;;;;;;;28.58;42.83;100571.47;5034748;28;20078;-69
2022/05/17 07:40:15;;;;;;;0.10;0.10;;;;;;;27.97;43.85;100576.19;5035951;28;20472;-70
2022/05/17 07:42:41;;;;;;;0.15;0.15;;;;;;;28.18;44.11;100578.91;5035484;28;20029;-69
2022/05/17 07:45:09;;;;;;;0.10;0.10;;;;;;;28.27;43.15;100571.59;5035462;28;20057;-70
2022/05/17 07:47:34;;;;;;;0.15;0.15;;;;;;;28.45;42.36;100565.91;5035491;28;20025;-69
2022/05/17 07:50:00;;;;;;;0.10;0.10;;;;;;;28.14;43.03;100572.56;5035354;28;20040;-70
2022/05/17 07:52:26;;;;;;;0.10;0.10;;;;;;;28.75;41.99;100554.75;5035663;28;20063;-70
2022/05/17 07:54:52;;;;;;;0.10;0.10;;;;;;;28.79;41.90;100563.97;5035901;28;20387;-71
2022/05/17 07:57:19;;;;;;;0.10;0.10;;;;;;;28.04;43.54;100564.44;5035164;28;20029;-69
2022/05/17 07:59:45;;;;;;;0.10;0.10;;;;;;;28.33;43.31;100558.28;5035862;28;20120;-70
2022/05/17 08:02:11;;;;;;;0.10;0.10;;;;;;;28.73;42.46;100563.03;5035562;28;20175;-70
2022/05/17 08:04:37;;;;;;;0.10;0.10;;;;;;;28.44;42.95;100538.56;5035324;28;20518;-69
2022/05/17 08:07:03;;;;;;;0.10;0.10;;;;;;;27.99;43.57;100565.84;5035352;28;20035;-69
2022/05/17 08:09:29;;;;;;;0.10;0.10;;;;;;;28.46;43.47;100556.06;5035766;28;20040;-70
2022/05/17 08:11:55;;;;;;;0.10;0.10;;;;;;;28.89;42.62;100554.09;5019139;28;20384;-70
2022/05/17 08:14:21;;;;;;;0.10;0.10;;;;;;;29.33;41.33;100567.97;5053059;28;20029;-70
2022/05/17 08:16:47;;;;;;;0.10;0.10;;;;;;;29.29;41.02;100561.63;5035048;28;20029;-70
2022/05/17 08:19:13;;;;;;;0.10;0.10;;;;;;;29.35;41.46;100563.34;5019241;28;20064;-70
2022/05/17 08:21:39;;;;;;;0.10;0.10;;;;;;;29.48;40.33;100563.13;5035214;28;20028;-70
2022/05/17 08:24:06;;;;;;;0.13;0.13;;;;;;;29.14;41.85;100562.31;5035111;28;20061;-70
2022/05/17 08:29:15;;;;;;;0.10;0.10;;;;;;;28.16;43.20;100564.28;5053327;28;20052;-70
2022/05/17 08:31:41;;;;;;;0.10;0.10;;;;;;;28.41;42.27;100556.69;5035098;28;20028;-70
2022/05/17 08:34:10;;;;;;;0.15;0.15;;;;;;;29.01;40.79;100558.84;5035243;28;20033;-69
2022/05/17 08:36:36;;;;;;;0.10;0.10;;;;;;;29.22;40.47;100557.03;5034993;28;20083;-69
2022/05/17 08:39:03;;;;;;;0.10;0.10;;;;;;;29.54;39.45;100557.56;5034892;28;20033;-70
2022/05/17 08:41:37;;;;;;;0.10;0.10;;;;;;;29.52;39.19;100560.09;5035214;28;20025;-70
2022/05/17 08:44:15;;;;;;;0.10;0.10;;;;;;;29.51;38.59;100562.19;5034900;28;20029;-70
2022/05/17 08:46:43;;;;;;;0.10;0.10;;;;;;;29.86;38.21;100570.28;5034972;28;20021;-70
2022/05/17 08:49:32;;;;;;;0.10;0.10;;;;;;;29.60;38.43;100565.00;5036911;28;20064;-69
2022/05/17 08:52:04;;;;;;;0.10;0.10;;;;;;;30.29;36.97;100568.09;5038786;28;20071;-70
2022/05/17 08:54:36;;;;;;;0.10;0.10;;;;;;;29.65;37.63;100567.22;5038718;28;20028;-70
2022/05/17 08:57:15;;;;;;;0.10;0.10;;;;;;;29.73;38.03;100568.44;5038706;28;20033;-70
2022/05/17 08:59:42;;;;;;;0.10;0.10;;;;;;;30.18;37.24;100563.72;5039373;28;20025;-70
2022/05/17 09:02:16;;;;;;;0.10;0.10;;;;;;;30.95;35.85;100567.84;5038803;28;20025;-69
2022/05/17 09:04:54;;;;;;;0.10;0.10;;;;;;;30.07;37.75;100563.44;5038527;28;20024;-70
2022/05/17 09:07:24;;;;;;;0.10;0.10;;;;;;;30.11;37.41;100564.06;5038915;28;20029;-70
2022/05/17 09:10:01;;;;;;;0.10;0.10;;;;;;;30.70;36.37;100575.72;5038434;28;20033;-70
2022/05/17 09:12:50;;;;;;;0.10;0.10;;;;;;;30.41;37.60;100567.81;5038817;28;20029;-70
2022/05/17 09:15:18;;;;;;;0.10;0.10;;;;;;;30.11;37.94;100564.06;5039196;28;20025;-70
2022/05/17 09:17:45;;;;;;;0.10;0.10;;;;;;;30.64;36.66;100559.66;5038575;28;20119;-70
2022/05/17 09:20:15;;;;;;;0.10;0.10;;;;;;;30.33;37.41;100560.09;5038502;28;20040;-70
2022/05/17 09:22:41;;;;;;;0.10;0.10;;;;;;;30.51;36.40;100559.91;5038036;28;20498;-70
2022/05/17 09:25:44;;;;;;;0.10;0.10;;;;;;;30.50;37.17;100555.47;5034391;28;20053;-70
2022/05/17 09:28:10;;;;;;;0.10;0.10;;;;;;;29.58;37.83;100561.84;5034888;28;20037;-70
2022/05/17 09:30:38;;;;;;;0.10;0.10;;;;;;;30.38;37.60;100548.72;5035580;28;20034;-70
2022/05/17 09:33:11;;;;;;;0.10;0.10;;;;;;;29.93;38.21;100552.69;5036355;28;20018;-70
2022/05/17 09:35:43;;;;;;;0.10;0.10;;;;;;;29.56;37.59;100549.25;5034840;28;20472;-70
2022/05/17 09:38:14;;;;;;;0.10;0.10;;;;;;;30.35;36.54;100554.66;5034490;28;20116;-70
2022/05/17 09:40:41;;;;;;;0.10;0.10;;;;;;;30.55;36.49;100549.03;5034939;28;20056;-70
2022/05/17 09:43:11;;;;;;;0.10;0.10;;;;;;;30.73;37.41;100546.00;5034726;28;20052;-70
2022/05/17 09:45:46;;;;;;;0.10;0.10;;;;;;;31.13;36.61;100547.50;5034568;28;20030;-70
2022/05/17 09:48:24;;;;;;;0.10;0.10;;;;;;;30.11;37.20;100552.56;5034685;28;20429;-70
2022/05/17 09:53:48;;;;;;;0.10;0.10;;;;;;;30.32;37.01;100544.94;5036027;28;20188;-71
2022/05/17 09:56:24;;;;;;;0.10;0.10;;;;;;;29.94;37.26;100542.84;5034673;28;20124;-71
2022/05/17 09:58:50;;;;;;;0.10;0.10;;;;;;;30.04;37.81;100541.47;5035227;28;20036;-70
2022/05/17 10:01:28;;;;;;;0.10;0.10;;;;;;;29.86;36.94;100541.59;5032616;28;20033;-71
2022/05/17 10:04:05;;;;;;;0.10;0.10;;;;;;;29.85;37.14;100546.53;5034046;28;20107;-70
2022/05/17 10:06:35;;;;;;;0.10;0.10;;;;;;;30.11;37.60;100551.78;5034875;28;20036;-70
2022/05/17 10:09:12;;;;;;;0.10;0.10;;;;;;;29.73;37.38;100550.44;5034026;28;20084;-70
2022/05/17 10:11:52;;;;;;;0.10;0.10;;;;;;;29.91;38.40;100549.53;5034001;28;20033;-70
2022/05/17 10:14:33;;;;;;;0.10;0.10;;;;;;;29.13;40.89;100549.25;5034178;28;20017;-70
2022/05/17 10:17:43;;;;;;;0.10;0.10;;;;;;;29.60;39.71;100542.06;5033903;28;20033;-70
2022/05/17 10:20:18;;;;;;;0.10;0.10;;;;;;;29.55;39.42;100522.66;5034331;28;20526;-70
2022/05/17 10:22:58;;;;;;;0.10;0.10;;;;;;;29.49;39.92;100538.91;5034006;28;20465;-70
2022/05/17 10:25:31;;;;;;;0.10;0.10;;;;;;;29.62;40.15;100545.25;5033352;28;20534;-70
2022/05/17 10:28:07;;;;;;;0.10;0.10;;;;;;;29.69;40.43;100539.16;5033581;28;20029;-70
2022/05/17 10:30:52;;;;;;;0.10;0.10;;;;;;;28.56;40.51;100516.78;5033904;28;20045;-70
2022/05/17 10:33:28;;;;;;;0.10;0.10;;;;;;;29.42;40.11;100548.66;5034006;28;20025;-70
2022/05/17 10:36:01;;;;;;;0.10;0.10;;;;;;;28.98;41.01;100542.66;5033433;28;20365;-70
2022/05/17 10:38:34;;;;;;;0.10;0.10;;;;;;;29.32;40.66;100543.47;5033420;28;20029;-70
2022/05/17 10:41:09;;;;;;;0.10;0.10;;;;;;;28.55;40.43;100541.75;5033961;28;20065;-70
2022/05/17 10:43:41;;;;;;;0.10;0.10;;;;;;;28.84;41.53;100537.56;5033709;28;20353;-70
2022/05/17 10:46:30;;;;;;;0.10;0.10;;;;;;;28.87;41.68;100539.44;5033453;28;20056;-70
2022/05/17 10:49:11;;;;;;;0.10;0.10;;;;;;;28.40;43.87;100521.56;5022344;28;20033;-70
2022/05/17 10:52:05;;;;;;;0.10;0.10;;;;;;;28.61;41.30;100530.44;5033786;28;20025;-69
2022/05/17 10:54:49;;;;;;;0.10;0.10;;;;;;;29.28;39.99;100525.66;5033524;28;20036;-70
2022/05/17 10:57:18;;;;;;;0.10;0.10;;;;;;;29.09;39.73;100522.88;5033458;28;20109;-70
2022/05/17 11:00:18;;;;;;;0.20;0.20;;;;;;;29.49;39.33;100507.38;5032885;28;20025;-70
2022/05/17 11:02:59;;;;;;;0.10;0.10;;;;;;;29.33;40.94;100528.66;5033039;28;20032;-70
2022/05/17 11:05:58;;;;;;;0.10;0.10;;;;;;;29.21;39.15;100518.19;5033650;28;20471;-70
2022/05/17 11:08:42;;;;;;;0.10;0.10;;;;;;;28.86;41.33;100517.81;5033254;28;20029;-70
2022/05/17 11:11:21;;;;;;;0.10;0.10;;;;;;;28.24;42.80;100516.16;5033412;28;20032;-70
2022/05/17 11:13:51;;;;;;;0.10;0.10;;;;;;;28.21;41.76;100514.22;5033252;28;20412;-70
2022/05/17 11:16:27;;;;;;;0.10;0.10;;;;;;;28.45;41.36;100514.41;5032666;28;20025;-70
2022/05/17 11:19:03;;;;;;;0.10;0.10;;;;;;;28.32;41.10;100510.88;5032559;28;20464;-70
2022/05/17 11:21:42;;;;;;;0.10;0.10;;;;;;;28.59;40.65;100487.97;5032025;28;20049;-70
2022/05/17 11:24:15;;;;;;;0.10;0.10;;;;;;;28.41;40.92;100493.75;5037090;28;20228;-69
2022/05/17 11:26:57;;;;;;;0.10;0.10;;;;;;;28.85;39.72;100494.09;5035400;28;20052;-70
2022/05/17 11:29:44;;;;;;;0.10;0.10;;;;;;;28.23;42.24;100499.44;5036183;28;20483;-71
2022/05/17 11:32:38;;;;;;;0.10;0.10;;;;;;;27.73;41.82;100495.94;5035754;28;20121;-70
2022/05/17 11:35:43;;;;;;;0.10;0.10;;;;;;;28.18;41.51;100490.25;5031900;28;20044;-70
2022/05/17 11:38:39;;;;;;;0.10;0.10;;;;;;;27.66;44.45;100485.56;5018269;28;20610;-70
2022/05/17 11:41:34;;;;;;;0.10;0.10;;;;;;;28.87;40.83;100453.53;5051734;28;20041;-69
2022/05/17 11:44:05;;;;;;;0.10;0.10;;;;;;;28.84;41.83;100477.41;5035525;28;20048;-70
2022/05/17 11:46:31;;;;;;;0.10;0.10;;;;;;;28.79;40.45;100470.28;5035046;28;20040;-69
2022/05/17 11:49:12;;;;;;;0.10;0.10;;;;;;;28.33;41.92;100469.56;5035452;28;20032;-70
2022/05/17 11:51:58;;;;;;;0.10;0.10;;;;;;;28.15;42.18;100465.44;5036210;28;20115;-69
2022/05/17 11:54:42;;;;;;;0.10;0.10;;;;;;;28.56;43.28;100466.06;5035088;28;20021;-69
2022/05/17 11:57:23;;;;;;;0.10;0.10;;;;;;;27.76;43.96;100449.25;5035193;28;20028;-69
2022/05/17 11:59:55;;;;;;;0.10;0.10;;;;;;;27.80;43.09;100427.00;5036142;28;20025;-70
2022/05/17 12:02:46;;;;;;;0.10;0.10;;;;;;;28.13;41.61;100456.56;5035360;28;20491;-69
2022/05/17 12:05:37;;;;;;;0.10;0.10;;;;;;;28.06;41.16;100459.72;5035538;28;20021;-70
2022/05/17 12:08:39;;;;;;;0.10;0.10;;;;;;;27.71;39.58;100455.59;5035917;28;20033;-69
2022/05/17 12:11:11;;;;;;;0.17;0.17;;;;;;;27.82;41.54;100447.34;5035003;28;20392;-69
2022/05/17 12:14:15;;;;;;;0.10;0.10;;;;;;;27.88;42.70;100443.38;5035695;28;20368;-70
2022/05/17 12:16:48;;;;;;;;;;;;;;;27.81;41.66;100428.59;5035870;28;20480;-70
2022/05/17 12:19:40;;;;;;;0.10;0.10;;;;;;;27.68;42.60;100443.00;5035057;28;19913;-70
2022/05/17 12:22:17;;;;;;;0.10;0.10;;;;;;;27.43;43.70;100426.94;5035832;28;20029;-70
2022/05/17 12:24:54;;;;;;;0.20;0.20;;;;;;;26.98;45.10;100430.44;5037508;28;20496;-70
2022/05/17 12:27:24;;;;;;;0.10;0.10;;;;;;;27.27;44.86;100395.78;5039175;28;20032;-70
2022/05/17 12:33:20;;;;;;;0.10;0.10;;;;;;;26.88;45.29;100415.34;5057143;28;20090;-70
2022/05/17 12:35:47;;;;;;;0.10;0.10;;;;;;;27.32;44.03;100420.88;5038250;28;20151;-70
2022/05/17 12:44:20;;;;;;;0.10;0.10;;;;;;;27.28;43.56;100423.91;5056865;28;20115;-70
2022/05/17 12:46:48;;;;;;;0.10;0.10;;;;;;;27.38;43.36;100404.72;5039105;28;20124;-69